createdAt,value
2018-12-09T00:00:09.578Z,0.00
2018-12-09T00:01:09.520Z,0.00
2018-12-09T00:02:09.699Z,0.00
2018-12-09T00:03:09.607Z,0.00
2018-12-09T00:04:09.765Z,0.00
2018-12-09T00:05:09.504Z,0.00
2018-12-09T00:06:09.650Z,0.00
2018-12-09T00:07:09.765Z,0.00
2018-12-09T00:08:09.750Z,0.00
2018-12-09T00:09:09.762Z,0.00
2018-12-09T00:10:09.805Z,0.00
2018-12-09T00:11:09.453Z,0.00
2018-12-09T00:13:23.867Z,0.00
2018-12-09T00:14:24.850Z,0.00
2018-12-09T00:15:26.784Z,0.00
2018-12-09T00:16:23.116Z,0.00
2018-12-09T00:17:22.702Z,0.00
2018-12-09T00:18:22.613Z,0.00
2018-12-09T00:19:22.527Z,0.00
2018-12-09T00:20:22.814Z,0.00
2018-12-09T00:21:22.776Z,0.00
2018-12-09T00:22:22.539Z,0.00
2018-12-09T00:23:22.744Z,0.00
2018-12-09T00:24:22.829Z,0.00
2018-12-09T00:25:22.563Z,0.00
2018-12-09T00:26:22.459Z,0.00
2018-12-09T00:28:34.851Z,0.00
2018-12-09T00:29:34.775Z,0.00
2018-12-09T00:30:34.677Z,0.00
2018-12-09T00:31:34.787Z,0.00
2018-12-09T00:32:35.101Z,0.00
2018-12-09T00:33:34.729Z,0.00
2018-12-09T00:34:35.514Z,0.00
2018-12-09T00:35:34.493Z,0.00
2018-12-09T00:36:34.715Z,0.00
2018-12-09T00:37:34.616Z,0.00
2018-12-09T00:38:34.810Z,0.00
2018-12-09T00:39:34.766Z,0.00
2018-12-09T00:40:34.641Z,0.00
2018-12-09T00:41:34.552Z,0.00
2018-12-09T00:43:51.563Z,0.00
2018-12-09T00:44:47.783Z,0.00
2018-12-09T00:45:47.815Z,0.00
2018-12-09T00:46:48.795Z,0.00
2018-12-09T00:47:47.798Z,0.00
2018-12-09T00:48:47.708Z,0.00
2018-12-09T00:49:47.808Z,0.00
2018-12-09T00:50:48.115Z,0.00
2018-12-09T00:51:47.817Z,0.00
2018-12-09T00:52:47.830Z,0.00
2018-12-09T00:53:47.817Z,0.00
2018-12-09T00:54:47.502Z,0.00
2018-12-09T00:55:47.822Z,0.00
2018-12-09T00:56:47.816Z,0.00
2018-12-09T00:57:47.832Z,0.00
2018-12-09T01:00:00.184Z,0.00
2018-12-09T01:00:59.778Z,0.00
2018-12-09T01:01:59.810Z,0.00
2018-12-09T01:02:59.576Z,0.00
2018-12-09T01:03:59.787Z,0.00
2018-12-09T01:04:59.698Z,0.00
2018-12-09T01:05:59.604Z,0.00
2018-12-09T01:06:59.819Z,0.00
2018-12-09T01:07:59.826Z,0.00
2018-12-09T01:08:59.846Z,0.00
2018-12-09T01:09:59.545Z,0.00
2018-12-09T01:10:59.758Z,0.00
2018-12-09T01:11:59.678Z,0.00
2018-12-09T01:12:59.573Z,0.00
2018-12-09T01:15:15.883Z,0.00
2018-12-09T01:16:15.716Z,0.00
2018-12-09T01:17:15.775Z,0.00
2018-12-09T01:18:15.676Z,0.00
2018-12-09T01:19:15.840Z,0.00
2018-12-09T01:20:15.841Z,0.00
2018-12-09T01:21:16.010Z,0.00
2018-12-09T01:22:15.598Z,0.00
2018-12-09T01:23:15.832Z,0.00
2018-12-09T01:24:15.840Z,0.00
2018-12-09T01:25:15.621Z,0.00
2018-12-09T01:26:15.531Z,0.00
2018-12-09T01:27:15.747Z,0.00
2018-12-09T01:28:15.866Z,0.00
2018-12-09T01:30:39.856Z,0.00
2018-12-09T01:31:39.632Z,0.00
2018-12-09T01:32:39.538Z,0.00
2018-12-09T01:33:39.445Z,0.00
2018-12-09T01:34:39.351Z,0.00
2018-12-09T01:35:39.551Z,0.00
2018-12-09T01:36:39.765Z,0.00
2018-12-09T01:37:39.359Z,0.00
2018-12-09T01:38:39.587Z,0.00
2018-12-09T01:39:39.793Z,0.00
2018-12-09T01:40:39.410Z,0.00
2018-12-09T01:41:39.685Z,0.00
2018-12-09T01:42:39.815Z,0.00
2018-12-09T01:43:39.412Z,0.00
2018-12-09T01:46:03.182Z,0.00
2018-12-09T01:47:02.782Z,0.00
2018-12-09T01:48:02.683Z,0.00
2018-12-09T01:49:02.697Z,0.00
2018-12-09T01:50:02.496Z,0.00
2018-12-09T01:51:02.693Z,0.00
2018-12-09T01:52:02.869Z,0.00
2018-12-09T01:53:02.532Z,0.00
2018-12-09T01:54:02.746Z,0.00
2018-12-09T01:55:02.901Z,0.00
2018-12-09T01:56:02.550Z,0.00
2018-12-09T01:57:02.783Z,0.00
2018-12-09T01:58:02.683Z,0.00
2018-12-09T01:59:02.569Z,0.00
2018-12-09T02:01:28.893Z,0.00
2018-12-09T02:02:26.896Z,0.00
2018-12-09T02:03:27.893Z,0.00
2018-12-09T02:04:26.662Z,0.00
2018-12-09T02:05:26.861Z,0.00
2018-12-09T02:06:26.874Z,0.00
2018-12-09T02:07:26.905Z,0.00
2018-12-09T02:08:26.905Z,0.00
2018-12-09T02:09:26.824Z,0.00
2018-12-09T02:10:26.708Z,0.00
2018-12-09T02:11:26.633Z,0.00
2018-12-09T02:12:26.899Z,0.00
2018-12-09T02:13:26.727Z,0.00
2018-12-09T02:14:26.631Z,0.00
2018-12-09T02:16:50.926Z,0.00
2018-12-09T02:17:50.641Z,0.00
2018-12-09T02:18:50.515Z,0.00
2018-12-09T02:19:50.415Z,0.00
2018-12-09T02:20:50.628Z,0.00
2018-12-09T02:21:50.533Z,0.00
2018-12-09T02:22:50.926Z,0.00
2018-12-09T02:23:50.339Z,0.00
2018-12-09T02:24:50.908Z,0.00
2018-12-09T02:25:50.912Z,0.00
2018-12-09T02:26:50.378Z,0.00
2018-12-09T02:27:50.278Z,0.00
2018-12-09T02:28:50.503Z,0.00
2018-12-09T02:29:50.544Z,0.00
2018-12-09T02:32:13.553Z,0.00
2018-12-09T02:33:13.781Z,0.00
2018-12-09T02:34:12.903Z,0.00
2018-12-09T02:35:12.938Z,0.00
2018-12-09T02:36:12.909Z,0.00
2018-12-09T02:37:12.775Z,0.00
2018-12-09T02:38:12.688Z,0.00
2018-12-09T02:39:12.896Z,0.00
2018-12-09T02:40:12.797Z,0.00
2018-12-09T02:41:12.922Z,0.00
2018-12-09T02:42:12.915Z,0.00
2018-12-09T02:43:12.822Z,0.00
2018-12-09T02:44:12.961Z,0.00
2018-12-09T02:45:12.627Z,0.00
2018-12-09T02:47:46.848Z,0.00
2018-12-09T02:48:46.958Z,0.00
2018-12-09T02:49:46.648Z,0.00
2018-12-09T02:50:46.885Z,0.00
2018-12-09T02:51:46.773Z,0.00
2018-12-09T02:52:46.667Z,0.00
2018-12-09T02:53:47.000Z,0.00
2018-12-09T02:54:46.959Z,0.00
2018-12-09T02:55:46.693Z,0.00
2018-12-09T02:56:46.939Z,0.00
2018-12-09T02:57:46.924Z,0.00
2018-12-09T02:58:46.426Z,0.00
2018-12-09T02:59:46.625Z,0.00
2018-12-09T03:00:46.967Z,0.00
2018-12-09T03:03:19.990Z,0.00
2018-12-09T03:04:19.746Z,0.00
2018-12-09T03:05:20.254Z,0.00
2018-12-09T03:06:19.854Z,0.00
2018-12-09T03:07:19.747Z,0.00
2018-12-09T03:08:19.966Z,0.00
2018-12-09T03:09:19.979Z,0.00
2018-12-09T03:10:19.777Z,0.00
2018-12-09T03:11:19.675Z,0.00
2018-12-09T03:12:19.900Z,0.00
2018-12-09T03:13:19.798Z,0.00
2018-12-09T03:14:19.704Z,0.00
2018-12-09T03:15:19.991Z,0.00
2018-12-09T03:17:32.966Z,0.00
2018-12-09T03:18:33.968Z,0.00
2018-12-09T03:19:32.738Z,0.00
2018-12-09T03:20:33.254Z,0.00
2018-12-09T03:21:32.859Z,0.00
2018-12-09T03:22:32.766Z,0.00
2018-12-09T03:23:32.975Z,0.00
2018-12-09T03:24:32.896Z,0.00
2018-12-09T03:25:33.016Z,0.00
2018-12-09T03:26:32.712Z,0.00
2018-12-09T03:27:32.908Z,0.00
2018-12-09T03:28:32.821Z,0.00
2018-12-09T03:29:33.027Z,0.00
2018-12-09T03:30:32.639Z,0.00
2018-12-09T03:31:32.979Z,0.00
2018-12-09T03:33:45.146Z,0.00
2018-12-09T03:34:44.971Z,0.00
2018-12-09T03:35:44.985Z,0.00
2018-12-09T03:36:44.984Z,0.00
2018-12-09T03:37:44.978Z,0.00
2018-12-09T03:38:44.913Z,0.00
2018-12-09T03:39:44.977Z,0.00
2018-12-09T03:40:44.876Z,0.00
2018-12-09T03:41:45.002Z,0.00
2018-12-09T03:42:45.344Z,0.00
2018-12-09T03:43:44.954Z,0.00
2018-12-09T03:44:44.857Z,0.00
2018-12-09T03:45:45.088Z,0.00
2018-12-09T03:46:44.994Z,0.00
2018-12-09T03:49:15.146Z,0.00
2018-12-09T03:50:08.986Z,0.00
2018-12-09T03:51:08.019Z,0.00
2018-12-09T03:52:08.023Z,0.00
2018-12-09T03:53:08.634Z,0.00
2018-12-09T03:54:08.063Z,0.00
2018-12-09T03:55:08.048Z,0.00
2018-12-09T03:56:08.062Z,0.00
2018-12-09T03:57:08.167Z,0.00
2018-12-09T03:58:08.108Z,0.00
2018-12-09T03:59:08.138Z,0.00
2018-12-09T04:00:08.036Z,0.00
2018-12-09T04:01:08.258Z,0.00
2018-12-09T04:02:08.018Z,0.00
2018-12-09T04:04:21.054Z,0.00
2018-12-09T04:05:21.926Z,0.00
2018-12-09T04:06:21.098Z,0.00
2018-12-09T04:07:21.001Z,0.00
2018-12-09T04:08:20.996Z,0.00
2018-12-09T04:09:20.994Z,0.00
2018-12-09T04:10:21.006Z,0.00
2018-12-09T04:11:20.738Z,0.00
2018-12-09T04:12:20.942Z,0.00
2018-12-09T04:13:21.056Z,0.00
2018-12-09T04:14:20.768Z,0.00
2018-12-09T04:15:20.978Z,0.00
2018-12-09T04:16:20.898Z,0.00
2018-12-09T04:17:20.791Z,0.00
2018-12-09T04:19:56.031Z,0.00
2018-12-09T04:20:56.039Z,0.00
2018-12-09T04:21:55.021Z,0.00
2018-12-09T04:22:56.009Z,0.00
2018-12-09T04:23:54.926Z,0.00
2018-12-09T04:24:55.092Z,0.00
2018-12-09T04:25:55.047Z,0.00
2018-12-09T04:26:55.011Z,0.00
2018-12-09T04:27:54.853Z,0.00
2018-12-09T04:28:54.756Z,0.00
2018-12-09T04:29:54.972Z,0.00
2018-12-09T04:30:56.433Z,0.00
2018-12-09T04:31:54.789Z,0.00
2018-12-09T04:32:54.689Z,0.00
2018-12-09T04:35:07.026Z,0.00
2018-12-09T04:36:06.685Z,0.00
2018-12-09T04:37:06.896Z,0.00
2018-12-09T04:38:06.496Z,0.00
2018-12-09T04:39:06.384Z,0.00
2018-12-09T04:40:08.724Z,0.00
2018-12-09T04:41:06.529Z,0.00
2018-12-09T04:42:07.041Z,0.00
2018-12-09T04:43:06.638Z,0.00
2018-12-09T04:44:06.547Z,0.00
2018-12-09T04:45:06.451Z,0.00
2018-12-09T04:46:06.367Z,0.00
2018-12-09T04:47:06.590Z,0.00
2018-12-09T04:48:06.798Z,0.00
2018-12-09T04:50:40.371Z,0.00
2018-12-09T04:51:39.971Z,0.00
2018-12-09T04:52:40.103Z,0.00
2018-12-09T04:53:39.814Z,0.00
2018-12-09T04:54:40.220Z,0.00
2018-12-09T04:55:39.892Z,0.00
2018-12-09T04:56:40.089Z,0.00
2018-12-09T04:57:39.701Z,0.00
2018-12-09T04:58:39.918Z,0.00
2018-12-09T04:59:40.438Z,0.00
2018-12-09T05:00:39.743Z,0.00
2018-12-09T05:01:40.092Z,0.00
2018-12-09T05:02:40.193Z,0.00
2018-12-09T05:05:05.126Z,0.00
2018-12-09T05:06:03.851Z,0.00
2018-12-09T05:07:04.671Z,0.00
2018-12-09T05:08:03.940Z,0.00
2018-12-09T05:09:03.552Z,0.00
2018-12-09T05:10:04.105Z,0.00
2018-12-09T05:11:05.103Z,0.00
2018-12-09T05:12:03.597Z,0.00
2018-12-09T05:13:03.793Z,0.00
2018-12-09T05:14:03.701Z,0.00
2018-12-09T05:15:03.599Z,0.00
2018-12-09T05:16:04.069Z,0.00
2018-12-09T05:17:04.088Z,0.00
2018-12-09T05:18:03.623Z,0.00
2018-12-09T05:20:27.999Z,0.00
2018-12-09T05:21:28.166Z,0.00
2018-12-09T05:22:28.066Z,0.00
2018-12-09T05:23:28.075Z,0.00
2018-12-09T05:24:27.621Z,0.00
2018-12-09T05:25:27.830Z,0.00
2018-12-09T05:26:28.036Z,0.00
2018-12-09T05:27:28.118Z,0.00
2018-12-09T05:28:27.863Z,0.00
2018-12-09T05:29:28.078Z,0.00
2018-12-09T05:30:27.668Z,0.00
2018-12-09T05:31:27.589Z,0.00
2018-12-09T05:32:28.137Z,0.00
2018-12-09T05:33:27.709Z,0.00
2018-12-09T05:36:35.153Z,0.00
2018-12-09T05:37:38.117Z,0.00
2018-12-09T05:38:35.101Z,0.00
2018-12-09T05:39:35.471Z,0.00
2018-12-09T05:40:35.051Z,0.00
2018-12-09T05:41:34.987Z,0.00
2018-12-09T05:42:35.216Z,0.00
2018-12-09T05:43:35.025Z,0.00
2018-12-09T05:44:35.105Z,0.00
2018-12-09T05:45:35.145Z,0.00
2018-12-09T05:46:35.053Z,0.00
2018-12-09T05:47:35.095Z,0.00
2018-12-09T05:48:35.196Z,0.00
2018-12-09T05:51:29.102Z,0.00
2018-12-09T05:52:04.060Z,0.00
2018-12-09T05:53:04.101Z,0.00
2018-12-09T05:54:04.109Z,0.00
2018-12-09T05:55:04.116Z,0.00
2018-12-09T05:56:04.131Z,0.00
2018-12-09T05:57:04.335Z,0.00
2018-12-09T05:58:04.131Z,0.00
2018-12-09T05:59:04.038Z,0.00
2018-12-09T06:00:04.142Z,0.00
2018-12-09T06:01:04.173Z,0.00
2018-12-09T06:02:04.190Z,0.00
2018-12-09T06:03:04.253Z,0.00
2018-12-09T06:04:04.135Z,0.00
2018-12-09T06:06:56.119Z,0.00
2018-12-09T06:07:28.122Z,0.00
2018-12-09T06:08:28.141Z,0.00
2018-12-09T06:09:27.965Z,0.00
2018-12-09T06:10:27.932Z,0.00
2018-12-09T06:11:28.278Z,0.00
2018-12-09T06:12:28.096Z,0.00
2018-12-09T06:13:27.961Z,0.00
2018-12-09T06:14:28.213Z,0.00
2018-12-09T06:15:28.177Z,0.00
2018-12-09T06:16:27.943Z,0.00
2018-12-09T06:17:28.489Z,0.00
2018-12-09T06:18:28.192Z,0.00
2018-12-09T06:19:27.975Z,0.00
2018-12-09T06:22:32.162Z,0.00
2018-12-09T06:23:28.140Z,0.00
2018-12-09T06:24:27.743Z,0.00
2018-12-09T06:25:27.149Z,0.00
2018-12-09T06:26:27.129Z,0.00
2018-12-09T06:27:26.862Z,0.00
2018-12-09T06:28:27.146Z,0.00
2018-12-09T06:29:26.667Z,4.00
2018-12-09T06:30:26.893Z,4.00
2018-12-09T06:31:27.097Z,4.00
2018-12-09T06:32:26.687Z,0.00
2018-12-09T06:33:26.619Z,0.00
2018-12-09T06:34:26.820Z,0.00
2018-12-09T06:36:52.734Z,4.00
2018-12-09T06:37:50.144Z,4.00
2018-12-09T06:38:49.162Z,4.00
2018-12-09T06:39:49.057Z,4.00
2018-12-09T06:40:48.968Z,4.00
2018-12-09T06:41:49.506Z,4.00
2018-12-09T06:42:49.105Z,4.00
2018-12-09T06:43:49.245Z,8.00
2018-12-09T06:44:48.911Z,8.00
2018-12-09T06:45:49.142Z,12.00
2018-12-09T06:46:50.201Z,16.00
2018-12-09T06:47:49.179Z,16.00
2018-12-09T06:48:48.840Z,12.00
2018-12-09T06:49:49.162Z,16.00
2018-12-09T06:53:01.157Z,16.00
2018-12-09T06:53:59.157Z,20.00
2018-12-09T06:54:59.160Z,24.00
2018-12-09T06:55:59.165Z,28.00
2018-12-09T06:58:57.286Z,36.00
2018-12-09T06:59:35.194Z,44.00
2018-12-09T07:00:35.324Z,48.00
2018-12-09T07:01:34.983Z,44.00
2018-12-09T07:02:35.155Z,56.00
2018-12-09T07:03:35.161Z,64.00
2018-12-09T07:04:35.172Z,52.00
2018-12-09T07:05:35.215Z,44.00
2018-12-09T07:07:47.232Z,64.00
2018-12-09T07:08:47.191Z,68.00
2018-12-09T07:09:47.126Z,84.00
2018-12-09T07:10:47.033Z,100.00
2018-12-09T07:11:46.941Z,112.00
2018-12-09T07:12:47.206Z,104.00
2018-12-09T07:13:47.046Z,100.00
2018-12-09T07:14:46.954Z,116.00
2018-12-09T07:15:47.172Z,124.00
2018-12-09T07:16:47.080Z,104.00
2018-12-09T07:17:47.251Z,104.00
2018-12-09T07:18:47.659Z,124.00
2018-12-09T07:19:47.146Z,128.00
2018-12-09T07:20:47.064Z,124.00
2018-12-09T07:23:13.247Z,160.00
2018-12-09T07:24:12.214Z,164.00
2018-12-09T07:25:12.117Z,156.00
2018-12-09T07:26:12.070Z,156.00
2018-12-09T07:27:12.312Z,136.00
2018-12-09T07:28:12.161Z,128.00
2018-12-09T07:29:12.100Z,136.00
2018-12-09T07:30:12.198Z,184.00
2018-12-09T07:31:13.224Z,196.00
2018-12-09T07:32:12.090Z,212.00
2018-12-09T07:33:11.989Z,196.00
2018-12-09T07:34:11.899Z,192.00
2018-12-09T07:35:12.331Z,204.00
2018-12-09T07:36:12.249Z,204.00
2018-12-09T07:38:47.265Z,244.00
2018-12-09T07:39:47.213Z,296.00
2018-12-09T07:40:49.105Z,440.00
2018-12-09T07:41:47.156Z,436.00
2018-12-09T07:42:47.059Z,468.00
2018-12-09T07:43:46.965Z,532.00
2018-12-09T07:44:47.219Z,416.00
2018-12-09T07:45:47.075Z,444.00
2018-12-09T07:46:47.228Z,612.00
2018-12-09T07:47:46.915Z,604.00
2018-12-09T07:48:47.108Z,608.00
2018-12-09T07:49:47.232Z,700.00
2018-12-09T07:50:46.954Z,680.00
2018-12-09T07:53:10.919Z,1000.00
2018-12-09T07:54:11.241Z,924.00
2018-12-09T07:55:10.819Z,820.00
2018-12-09T07:56:10.710Z,724.00
2018-12-09T07:57:10.651Z,808.00
2018-12-09T07:58:11.181Z,776.00
2018-12-09T07:59:11.061Z,736.00
2018-12-09T08:00:11.005Z,648.00
2018-12-09T08:01:10.924Z,664.00
2018-12-09T08:02:10.797Z,660.00
2018-12-09T08:03:10.796Z,716.00
2018-12-09T08:04:10.610Z,792.00
2018-12-09T08:05:10.925Z,768.00
2018-12-09T08:06:11.270Z,652.00
2018-12-09T08:09:02.111Z,836.00
2018-12-09T08:09:58.647Z,820.00
2018-12-09T08:10:58.372Z,812.00
2018-12-09T08:11:58.748Z,1176.00
2018-12-09T08:12:58.384Z,1492.00
2018-12-09T08:13:58.600Z,1052.00
2018-12-09T08:14:58.330Z,1068.00
2018-12-09T08:15:58.369Z,1180.00
2018-12-09T08:16:58.591Z,1220.00
2018-12-09T08:17:58.360Z,1212.00
2018-12-09T08:18:58.310Z,1316.00
2018-12-09T08:19:58.264Z,1212.00
2018-12-09T08:20:58.312Z,936.00
2018-12-09T08:21:58.242Z,708.00
2018-12-09T08:24:11.264Z,640.00
2018-12-09T08:25:11.026Z,540.00
2018-12-09T08:26:11.246Z,448.00
2018-12-09T08:27:10.832Z,448.00
2018-12-09T08:28:10.754Z,508.00
2018-12-09T08:29:10.955Z,588.00
2018-12-09T08:30:11.772Z,836.00
2018-12-09T08:31:10.760Z,1116.00
2018-12-09T08:32:10.995Z,1088.00
2018-12-09T08:33:10.880Z,1132.00
2018-12-09T08:34:10.787Z,1248.00
2018-12-09T08:35:10.690Z,1448.00
2018-12-09T08:36:11.259Z,1416.00
2018-12-09T08:37:10.861Z,1416.00
2018-12-09T08:39:24.359Z,1644.00
2018-12-09T08:40:25.793Z,1424.00
2018-12-09T08:41:24.249Z,1244.00
2018-12-09T08:42:24.152Z,1636.00
2018-12-09T08:43:24.056Z,1936.00
2018-12-09T08:44:24.277Z,1704.00
2018-12-09T08:45:24.791Z,1328.00
2018-12-09T08:46:24.294Z,1232.00
2018-12-09T08:47:24.003Z,1360.00
2018-12-09T08:48:24.219Z,1556.00
2018-12-09T08:49:24.133Z,1728.00
2018-12-09T08:50:24.958Z,1476.00
2018-12-09T08:51:24.329Z,1448.00
2018-12-09T08:52:24.131Z,1432.00
2018-12-09T08:54:58.341Z,1616.00
2018-12-09T08:56:08.722Z,1812.00
2018-12-09T08:57:00.394Z,2548.00
2018-12-09T08:57:59.956Z,3120.00
2018-12-09T08:58:59.434Z,2728.00
2018-12-09T08:59:59.311Z,2220.00
2018-12-09T09:00:57.885Z,2364.00
2018-12-09T09:01:58.063Z,2172.00
2018-12-09T09:02:57.959Z,2248.00
2018-12-09T09:03:57.943Z,2196.00
2018-12-09T09:04:57.929Z,2064.00
2018-12-09T09:05:58.568Z,2068.00
2018-12-09T09:06:58.150Z,1932.00
2018-12-09T09:07:57.733Z,2056.00
2018-12-09T09:10:09.332Z,1800.00
2018-12-09T09:11:10.044Z,1828.00
2018-12-09T09:12:09.342Z,1388.00
2018-12-09T09:13:09.229Z,1392.00
2018-12-09T09:14:09.148Z,1672.00
2018-12-09T09:15:09.043Z,2492.00
2018-12-09T09:16:09.346Z,2056.00
2018-12-09T09:17:09.341Z,1900.00
2018-12-09T09:18:09.074Z,2444.00
2018-12-09T09:19:09.362Z,2316.00
2018-12-09T09:20:09.319Z,2512.00
2018-12-09T09:21:09.096Z,2016.00
2018-12-09T09:22:09.323Z,2680.00
2018-12-09T09:23:09.457Z,3020.00
2018-12-09T09:26:17.515Z,2612.00
2018-12-09T09:27:19.568Z,3144.00
2018-12-09T09:28:17.319Z,3244.00
2018-12-09T09:29:18.382Z,3352.00
2018-12-09T09:30:17.312Z,3876.00
2018-12-09T09:31:17.042Z,3392.00
2018-12-09T09:32:17.562Z,3608.00
2018-12-09T09:33:17.157Z,3600.00
2018-12-09T09:34:17.060Z,3556.00
2018-12-09T09:35:17.292Z,4036.00
2018-12-09T09:36:17.185Z,4996.00
2018-12-09T09:37:17.107Z,4236.00
2018-12-09T09:38:17.350Z,3904.00
2018-12-09T09:40:30.624Z,3728.00
2018-12-09T09:41:30.353Z,3308.00
2018-12-09T09:42:30.324Z,2972.00
2018-12-09T09:43:30.314Z,3144.00
2018-12-09T09:44:30.245Z,2980.00
2018-12-09T09:45:30.159Z,3780.00
2018-12-09T09:46:30.361Z,4488.00
2018-12-09T09:47:30.340Z,4980.00
2018-12-09T09:48:30.183Z,5756.00
2018-12-09T09:49:30.343Z,5996.00
2018-12-09T09:50:30.290Z,5500.00
2018-12-09T09:51:30.326Z,4832.00
2018-12-09T09:52:30.107Z,4736.00
2018-12-09T09:53:30.030Z,4420.00
2018-12-09T09:55:44.068Z,4352.00
2018-12-09T09:56:42.936Z,4220.00
2018-12-09T09:57:43.333Z,3748.00
2018-12-09T09:58:44.569Z,3724.00
2018-12-09T09:59:42.948Z,3908.00
2018-12-09T10:00:43.474Z,4172.00
2018-12-09T10:01:43.334Z,3820.00
2018-12-09T10:02:43.340Z,4392.00
2018-12-09T10:03:42.884Z,4296.00
2018-12-09T10:04:43.348Z,4256.00
2018-12-09T10:05:42.998Z,4648.00
2018-12-09T10:06:43.354Z,4876.00
2018-12-09T10:07:42.815Z,5428.00
2018-12-09T10:08:42.721Z,7344.00
2018-12-09T10:10:56.445Z,8280.00
2018-12-09T10:11:56.370Z,8136.00
2018-12-09T10:12:56.419Z,9428.00
2018-12-09T10:13:56.684Z,8488.00
2018-12-09T10:14:56.368Z,8192.00
2018-12-09T10:15:56.376Z,10384.00
2018-12-09T10:16:56.705Z,12484.00
2018-12-09T10:17:56.317Z,11728.00
2018-12-09T10:18:56.197Z,9724.00
2018-12-09T10:19:56.357Z,8504.00
2018-12-09T10:20:56.316Z,8584.00
2018-12-09T10:21:57.142Z,6236.00
2018-12-09T10:22:56.126Z,6420.00
2018-12-09T10:23:56.346Z,7120.00
2018-12-09T10:24:56.250Z,7180.00
2018-12-09T10:27:07.415Z,13428.00
2018-12-09T10:28:07.365Z,16032.00
2018-12-09T10:29:06.917Z,16032.00
2018-12-09T10:30:06.879Z,15680.00
2018-12-09T10:31:06.729Z,19104.00
2018-12-09T10:32:06.944Z,20960.00
2018-12-09T10:33:07.149Z,16320.00
2018-12-09T10:34:06.749Z,14148.00
2018-12-09T10:35:07.389Z,9920.00
2018-12-09T10:36:06.869Z,10860.00
2018-12-09T10:37:06.772Z,12776.00
2018-12-09T10:38:07.292Z,12488.00
2018-12-09T10:39:06.923Z,12236.00
2018-12-09T10:40:06.798Z,12512.00
2018-12-09T10:42:28.387Z,5368.00
2018-12-09T10:43:28.435Z,4648.00
2018-12-09T10:44:27.914Z,4936.00
2018-12-09T10:45:27.818Z,9016.00
2018-12-09T10:46:28.050Z,13664.00
2018-12-09T10:47:27.936Z,12284.00
2018-12-09T10:48:28.156Z,11484.00
2018-12-09T10:49:28.407Z,7860.00
2018-12-09T10:50:27.969Z,5392.00
2018-12-09T10:51:28.392Z,5716.00
2018-12-09T10:52:27.783Z,5628.00
2018-12-09T10:53:28.006Z,6204.00
2018-12-09T10:54:28.207Z,5644.00
2018-12-09T10:55:27.801Z,4836.00
2018-12-09T10:57:37.437Z,4680.00
2018-12-09T10:58:37.345Z,4024.00
2018-12-09T10:59:38.442Z,3080.00
2018-12-09T11:00:37.472Z,2544.00
2018-12-09T11:01:37.366Z,2624.00
2018-12-09T11:02:37.278Z,2316.00
2018-12-09T11:03:37.401Z,2012.00
2018-12-09T11:04:37.405Z,2092.00
2018-12-09T11:05:37.431Z,2336.00
2018-12-09T11:06:37.193Z,2396.00
2018-12-09T11:07:37.408Z,2144.00
2018-12-09T11:08:37.324Z,2224.00
2018-12-09T11:09:37.256Z,2036.00
2018-12-09T11:10:38.053Z,2344.00
2018-12-09T11:13:00.527Z,3916.00
2018-12-09T11:13:59.872Z,5084.00
2018-12-09T11:14:59.786Z,5844.00
2018-12-09T11:16:00.475Z,5596.00
2018-12-09T11:17:00.287Z,5788.00
2018-12-09T11:18:00.361Z,5296.00
2018-12-09T11:18:59.630Z,4884.00
2018-12-09T11:20:00.113Z,3940.00
2018-12-09T11:20:59.838Z,3064.00
2018-12-09T11:21:59.737Z,3196.00
2018-12-09T11:23:00.450Z,2932.00
2018-12-09T11:23:59.908Z,3004.00
2018-12-09T11:24:59.758Z,4788.00
2018-12-09T11:26:00.213Z,6424.00
2018-12-09T11:28:14.466Z,5976.00
2018-12-09T11:29:14.428Z,6220.00
2018-12-09T11:30:14.333Z,8992.00
2018-12-09T11:31:14.436Z,10712.00
2018-12-09T11:32:14.428Z,10984.00
2018-12-09T11:33:14.354Z,11652.00
2018-12-09T11:34:14.463Z,12560.00
2018-12-09T11:35:14.449Z,9776.00
2018-12-09T11:36:14.409Z,6968.00
2018-12-09T11:37:14.433Z,10032.00
2018-12-09T11:38:14.448Z,10944.00
2018-12-09T11:39:14.466Z,9952.00
2018-12-09T11:40:14.484Z,10508.00
2018-12-09T11:41:14.211Z,10756.00
2018-12-09T11:43:38.527Z,8432.00
2018-12-09T11:44:38.481Z,8260.00
2018-12-09T11:45:38.110Z,8292.00
2018-12-09T11:46:38.006Z,8252.00
2018-12-09T11:47:38.501Z,8480.00
2018-12-09T11:48:38.199Z,8692.00
2018-12-09T11:49:38.050Z,8088.00
2018-12-09T11:50:37.958Z,7104.00
2018-12-09T11:51:38.169Z,6208.00
2018-12-09T11:52:38.081Z,5956.00
2018-12-09T11:53:38.283Z,6972.00
2018-12-09T11:54:37.874Z,6572.00
2018-12-09T11:55:38.078Z,5884.00
2018-12-09T11:56:38.025Z,6740.00
2018-12-09T11:59:02.506Z,4836.00
2018-12-09T12:00:01.971Z,3640.00
2018-12-09T12:01:01.879Z,3336.00
2018-12-09T12:02:04.023Z,3712.00
2018-12-09T12:03:01.979Z,3952.00
2018-12-09T12:04:01.887Z,3780.00
2018-12-09T12:05:02.117Z,3664.00
2018-12-09T12:06:01.694Z,3276.00
2018-12-09T12:07:01.907Z,2868.00
2018-12-09T12:08:01.818Z,3528.00
2018-12-09T12:09:01.634Z,3804.00
2018-12-09T12:10:02.242Z,3720.00
2018-12-09T12:11:02.155Z,4020.00
2018-12-09T12:12:01.605Z,3496.00
2018-12-09T12:14:12.505Z,3132.00
2018-12-09T12:15:14.140Z,3932.00
2018-12-09T12:16:12.518Z,3368.00
2018-12-09T12:17:12.507Z,2548.00
2018-12-09T12:18:13.153Z,2360.00
2018-12-09T12:19:12.465Z,2564.00
2018-12-09T12:20:12.345Z,2300.00
2018-12-09T12:21:12.595Z,2384.00
2018-12-09T12:22:12.625Z,3208.00
2018-12-09T12:23:12.527Z,3476.00
2018-12-09T12:24:12.285Z,2936.00
2018-12-09T12:25:12.510Z,2860.00
2018-12-09T12:26:12.443Z,3436.00
2018-12-09T12:27:12.485Z,3228.00
2018-12-09T12:29:25.489Z,2956.00
2018-12-09T12:30:26.275Z,3028.00
2018-12-09T12:31:25.439Z,2740.00
2018-12-09T12:32:25.535Z,2580.00
2018-12-09T12:33:25.241Z,2740.00
2018-12-09T12:34:25.147Z,2816.00
2018-12-09T12:35:25.490Z,2908.00
2018-12-09T12:36:25.315Z,2604.00
2018-12-09T12:37:25.175Z,2864.00
2018-12-09T12:38:25.088Z,3212.00
2018-12-09T12:39:25.526Z,3336.00
2018-12-09T12:40:25.209Z,3216.00
2018-12-09T12:41:25.408Z,3212.00
2018-12-09T12:42:25.025Z,2972.00
2018-12-09T12:44:38.509Z,3448.00
2018-12-09T12:45:37.582Z,4116.00
2018-12-09T12:46:38.461Z,3792.00
2018-12-09T12:47:37.555Z,4044.00
2018-12-09T12:48:37.655Z,4200.00
2018-12-09T12:49:37.517Z,4412.00
2018-12-09T12:50:37.571Z,4936.00
2018-12-09T12:51:37.506Z,5124.00
2018-12-09T12:52:38.613Z,4700.00
2018-12-09T12:53:37.521Z,4216.00
2018-12-09T12:54:37.521Z,3680.00
2018-12-09T12:55:37.532Z,3240.00
2018-12-09T12:56:37.555Z,2860.00
2018-12-09T12:57:37.409Z,3016.00
2018-12-09T12:59:49.189Z,3536.00
2018-12-09T13:00:49.404Z,3100.00
2018-12-09T13:01:49.034Z,2852.00
2018-12-09T13:02:48.911Z,2600.00
2018-12-09T13:03:49.590Z,2344.00
2018-12-09T13:04:49.350Z,2012.00
2018-12-09T13:05:48.952Z,1960.00
2018-12-09T13:06:48.835Z,2128.00
2018-12-09T13:07:48.731Z,1788.00
2018-12-09T13:08:48.952Z,2004.00
2018-12-09T13:09:49.509Z,2272.00
2018-12-09T13:10:48.706Z,2152.00
2018-12-09T13:11:49.000Z,1892.00
2018-12-09T13:12:48.905Z,1868.00
2018-12-09T13:13:48.674Z,1524.00
2018-12-09T13:16:24.227Z,1272.00
2018-12-09T13:17:23.676Z,1320.00
2018-12-09T13:18:23.676Z,1256.00
2018-12-09T13:19:23.940Z,1236.00
2018-12-09T13:20:24.196Z,1080.00
2018-12-09T13:21:23.628Z,960.00
2018-12-09T13:22:23.684Z,904.00
2018-12-09T13:23:23.866Z,824.00
2018-12-09T13:24:23.605Z,856.00
2018-12-09T13:25:23.671Z,816.00
2018-12-09T13:26:24.531Z,788.00
2018-12-09T13:27:23.574Z,844.00
2018-12-09T13:28:23.572Z,692.00
2018-12-09T13:30:38.330Z,716.00
2018-12-09T13:31:35.107Z,776.00
2018-12-09T13:32:35.353Z,872.00
2018-12-09T13:33:35.552Z,892.00
2018-12-09T13:34:34.826Z,880.00
2018-12-09T13:35:35.031Z,940.00
2018-12-09T13:36:34.939Z,1108.00
2018-12-09T13:37:35.549Z,1268.00
2018-12-09T13:38:35.085Z,1264.00
2018-12-09T13:39:34.974Z,1224.00
2018-12-09T13:40:34.763Z,1076.00
2018-12-09T13:41:34.761Z,1100.00
2018-12-09T13:42:35.008Z,972.00
2018-12-09T13:43:35.221Z,1028.00
2018-12-09T13:45:45.968Z,876.00
2018-12-09T13:46:45.956Z,892.00
2018-12-09T13:47:46.474Z,896.00
2018-12-09T13:48:46.394Z,868.00
2018-12-09T13:49:45.977Z,952.00
2018-12-09T13:50:46.608Z,952.00
2018-12-09T13:51:46.116Z,892.00
2018-12-09T13:52:46.024Z,1032.00
2018-12-09T13:53:46.537Z,1192.00
2018-12-09T13:54:47.247Z,1180.00
2018-12-09T13:55:46.029Z,1200.00
2018-12-09T13:56:46.551Z,1384.00
2018-12-09T13:57:45.792Z,1264.00
2018-12-09T13:58:46.589Z,1156.00